Time;durP1;ratioP1;P1;durP2;ratioP2;P2;SDS_P1;SDS_P2;PMS_P1;PMS_P2;Temp;Humidity;BMP_temperature;BMP_pressure;BME280_temperature;BME280_humidity;BME280_pressure;Samples;Min_cycle;Max_cycle;Signal;HPM_P1;HPM_P2
2024/01/26 00:02:11;;;;;;;26.90;19.43;;;;;;;;;;5035701;28;20397;-66
2024/01/26 00:04:36;;;;;;;27.33;20.02;;;;;;;;;;5053424;28;20468;-65
2024/01/26 00:07:01;;;;;;;24.53;19.43;;;;;;;;;;5053170;28;20928;-66
2024/01/26 00:09:26;;;;;;;25.90;20.20;;;;;;;;;;5053751;28;20522;-65
2024/01/26 00:11:52;;;;;;;24.00;18.67;;;;;;;;;;5053340;28;20402;-65
2024/01/26 00:14:17;;;;;;;25.30;19.77;;;;;;;;;;5053503;28;20482;-66
2024/01/26 00:16:43;;;;;;;25.52;19.45;;;;;;;;;;5035963;28;20405;-66
2024/01/26 00:19:08;;;;;;;27.90;20.80;;;;;;;;;;5052512;28;20389;-66
2024/01/26 00:21:33;;;;;;;27.40;20.13;;;;;;;;;;5053965;28;20730;-66
2024/01/26 00:23:59;;;;;;;25.83;20.33;;;;;;;;;;5035284;28;20528;-66
2024/01/26 00:26:24;;;;;;;25.77;20.13;;;;;;;;;;5034869;28;20428;-66
2024/01/26 00:28:49;;;;;;;24.75;19.13;;;;;;;;;;5053744;28;20796;-66
2024/01/26 00:31:16;;;;;;;24.67;19.47;;;;;;;;;;5052483;28;20468;-66
2024/01/26 00:33:41;;;;;;;25.70;19.00;;;;;;;;;;5053569;28;20393;-65
2024/01/26 00:36:06;;;;;;;24.33;19.23;;;;;;;;;;5053037;28;20427;-66
2024/01/26 00:38:32;;;;;;;23.70;18.77;;;;;;;;;;5052138;28;20815;-65
2024/01/26 00:40:57;;;;;;;25.10;19.35;;;;;;;;;;5053751;28;20405;-65
2024/01/26 00:43:22;;;;;;;23.83;19.93;;;;;;;;;;5052958;28;20383;-66
2024/01/26 00:45:48;;;;;;;23.93;19.03;;;;;;;;;;5052244;28;20405;-65
2024/01/26 00:48:13;;;;;;;26.83;19.63;;;;;;;;;;5052799;28;20889;-66
2024/01/26 00:50:38;;;;;;;24.97;20.00;;;;;;;;;;5053461;28;20404;-66
2024/01/26 00:53:04;;;;;;;21.60;18.08;;;;;;;;;;5051767;28;20405;-66
2024/01/26 00:55:29;;;;;;;22.13;18.00;;;;;;;;;;5035351;28;20390;-65
2024/01/26 00:57:56;;;;;;;24.57;19.87;;;;;;;;;;5053109;28;20433;-65
2024/01/26 01:00:21;;;;;;;23.85;18.95;;;;;;;;;;5051929;28;20373;-65
2024/01/26 01:02:48;;;;;;;23.07;19.37;;;;;;;;;;5052986;28;20402;-65
2024/01/26 01:05:13;;;;;;;25.40;20.00;;;;;;;;;;5052491;28;20405;-65
2024/01/26 01:07:39;;;;;;;25.50;19.80;;;;;;;;;;5052047;28;20731;-65
2024/01/26 01:10:05;;;;;;;25.17;20.77;;;;;;;;;;5051996;28;20811;-65
2024/01/26 01:12:30;;;;;;;23.93;19.67;;;;;;;;;;5053112;28;20544;-65
2024/01/26 01:14:57;;;;;;;24.48;19.65;;;;;;;;;;5051805;28;20896;-65
2024/01/26 01:17:22;;;;;;;24.92;19.02;;;;;;;;;;5052269;28;20865;-65
2024/01/26 01:19:47;;;;;;;22.97;17.90;;;;;;;;;;5052594;28;20429;-65
2024/01/26 01:22:13;;;;;;;25.03;20.40;;;;;;;;;;5033885;28;20405;-65
2024/01/26 01:24:38;;;;;;;22.90;19.00;;;;;;;;;;5051931;28;20428;-65
2024/01/26 01:27:03;;;;;;;21.63;17.83;;;;;;;;;;5052420;28;20448;-65
2024/01/26 01:29:29;;;;;;;23.10;18.83;;;;;;;;;;5051767;28;20424;-65
2024/01/26 01:31:54;;;;;;;22.70;18.17;;;;;;;;;;5052640;28;20433;-65
2024/01/26 01:34:19;;;;;;;23.08;18.25;;;;;;;;;;5051713;28;21219;-65
2024/01/26 01:36:45;;;;;;;23.80;18.20;;;;;;;;;;5051758;28;20410;-65
2024/01/26 01:39:10;;;;;;;22.17;17.93;;;;;;;;;;5033703;28;20461;-65
2024/01/26 01:41:35;;;;;;;20.20;17.30;;;;;;;;;;5051711;28;20412;-65
2024/01/26 01:44:01;;;;;;;21.17;17.20;;;;;;;;;;5051719;28;20420;-66
2024/01/26 01:46:26;;;;;;;22.42;17.13;;;;;;;;;;5052457;28;20397;-65
2024/01/26 01:48:52;;;;;;;22.23;18.33;;;;;;;;;;5050999;28;20409;-65
2024/01/26 01:51:17;;;;;;;20.48;17.05;;;;;;;;;;5051589;28;20745;-65
2024/01/26 01:53:42;;;;;;;19.90;16.37;;;;;;;;;;5034206;28;20429;-65
2024/01/26 01:56:10;;;;;;;21.33;17.47;;;;;;;;;;5049156;28;20480;-65
2024/01/26 01:58:35;;;;;;;20.48;16.23;;;;;;;;;;5052012;28;20394;-65
2024/01/26 02:01:00;;;;;;;18.87;16.40;;;;;;;;;;5033559;28;20455;-67
2024/01/26 02:03:26;;;;;;;18.57;15.87;;;;;;;;;;5050965;28;20402;-65
2024/01/26 02:05:51;;;;;;;19.33;16.60;;;;;;;;;;5033823;28;20462;-65
2024/01/26 02:08:16;;;;;;;19.33;15.60;;;;;;;;;;5051374;28;20408;-65
2024/01/26 02:10:41;;;;;;;20.53;16.43;;;;;;;;;;5050652;28;20394;-65
2024/01/26 02:13:07;;;;;;;18.73;15.97;;;;;;;;;;5033540;28;20393;-65
2024/01/26 02:15:32;;;;;;;20.48;16.50;;;;;;;;;;5033754;28;20448;-65
2024/01/26 02:17:58;;;;;;;19.10;16.33;;;;;;;;;;5050737;28;20394;-65
2024/01/26 02:20:23;;;;;;;19.63;16.20;;;;;;;;;;5051129;28;20382;-65
2024/01/26 02:22:48;;;;;;;19.40;15.63;;;;;;;;;;5051744;28;20409;-65
2024/01/26 02:25:14;;;;;;;19.37;16.17;;;;;;;;;;5049399;28;20436;-65
2024/01/26 02:27:39;;;;;;;19.00;15.23;;;;;;;;;;5051726;28;20408;-65
2024/01/26 02:30:05;;;;;;;19.47;15.60;;;;;;;;;;5051072;28;20398;-65
2024/01/26 02:32:30;;;;;;;19.48;15.65;;;;;;;;;;5050594;28;20765;-65
2024/01/26 02:34:55;;;;;;;18.50;15.37;;;;;;;;;;5051177;28;20475;-65
2024/01/26 02:37:20;;;;;;;17.60;14.57;;;;;;;;;;5050767;28;20428;-65
2024/01/26 02:39:46;;;;;;;18.63;15.17;;;;;;;;;;5050464;28;20405;-65
2024/01/26 02:42:11;;;;;;;19.43;16.00;;;;;;;;;;5050395;28;20405;-65
2024/01/26 02:44:36;;;;;;;15.32;13.48;;;;;;;;;;5051225;28;20403;-65
2024/01/26 02:47:02;;;;;;;17.50;15.00;;;;;;;;;;5049958;28;20739;-66
2024/01/26 02:49:28;;;;;;;16.23;13.83;;;;;;;;;;5051080;28;20400;-65
2024/01/26 02:51:53;;;;;;;16.50;13.88;;;;;;;;;;5050210;28;20393;-65
2024/01/26 02:54:18;;;;;;;15.27;12.53;;;;;;;;;;5050535;28;20409;-65
2024/01/26 02:56:43;;;;;;;15.07;13.10;;;;;;;;;;5050422;28;20405;-65
2024/01/26 02:59:09;;;;;;;13.30;11.87;;;;;;;;;;5049579;28;21005;-65
2024/01/26 03:01:34;;;;;;;13.57;11.07;;;;;;;;;;5050724;28;20435;-65
2024/01/26 03:03:59;;;;;;;14.07;10.90;;;;;;;;;;5050900;28;21018;-65
2024/01/26 03:06:25;;;;;;;12.20;10.33;;;;;;;;;;5049416;28;20401;-65
2024/01/26 03:08:50;;;;;;;10.77;9.50;;;;;;;;;;5050599;28;20473;-65
2024/01/26 03:11:15;;;;;;;12.23;10.00;;;;;;;;;;5049635;28;20393;-65
2024/01/26 03:13:41;;;;;;;13.27;10.40;;;;;;;;;;5049982;28;20393;-65
2024/01/26 03:16:06;;;;;;;11.70;9.88;;;;;;;;;;5050023;28;20563;-65
2024/01/26 03:18:31;;;;;;;12.13;9.50;;;;;;;;;;5050658;28;20389;-65
2024/01/26 03:20:56;;;;;;;11.53;9.63;;;;;;;;;;5032205;28;20401;-65
2024/01/26 03:23:22;;;;;;;12.27;9.10;;;;;;;;;;5049963;28;20390;-65
2024/01/26 03:25:47;;;;;;;11.13;8.47;;;;;;;;;;5050271;28;20480;-65
2024/01/26 03:28:12;;;;;;;10.00;7.73;;;;;;;;;;5049108;28;20393;-65
2024/01/26 03:30:40;;;;;;;9.38;7.97;;;;;;;;;;5050830;28;20385;-65
2024/01/26 03:33:06;;;;;;;9.38;7.55;;;;;;;;;;5050027;28;20396;-65
2024/01/26 03:35:31;;;;;;;10.40;7.25;;;;;;;;;;5050124;28;20406;-65
2024/01/26 03:37:56;;;;;;;9.70;7.30;;;;;;;;;;5050242;28;20400;-65
2024/01/26 03:40:24;;;;;;;8.40;6.50;;;;;;;;;;5021826;28;20407;-65
2024/01/26 03:42:49;;;;;;;10.57;7.25;;;;;;;;;;5028427;28;21130;-64
2024/01/26 03:45:14;;;;;;;9.40;6.57;;;;;;;;;;5012001;28;20404;-64
2024/01/26 03:47:40;;;;;;;8.13;6.17;;;;;;;;;;5020292;28;20405;-64
2024/01/26 03:50:06;;;;;;;9.33;6.30;;;;;;;;;;5037904;28;21393;-65
2024/01/26 03:52:31;;;;;;;9.15;6.30;;;;;;;;;;5040290;28;20834;-64
2024/01/26 03:54:57;;;;;;;8.57;6.10;;;;;;;;;;5039804;28;20877;-64
2024/01/26 03:57:22;;;;;;;8.82;6.30;;;;;;;;;;5020310;28;20803;-64
2024/01/26 03:59:48;;;;;;;9.77;6.50;;;;;;;;;;5020701;28;20391;-64
2024/01/26 04:02:13;;;;;;;8.93;5.97;;;;;;;;;;5019543;28;20390;-64
2024/01/26 04:04:39;;;;;;;7.85;5.80;;;;;;;;;;5016192;28;20482;-64
2024/01/26 04:07:04;;;;;;;9.60;6.28;;;;;;;;;;5030940;28;20513;-64
2024/01/26 04:09:30;;;;;;;8.70;6.03;;;;;;;;;;5030932;28;20739;-64
2024/01/26 04:11:55;;;;;;;7.90;5.73;;;;;;;;;;5035430;28;20965;-64
2024/01/26 04:14:21;;;;;;;6.57;5.27;;;;;;;;;;5022116;28;20391;-64
2024/01/26 04:16:46;;;;;;;7.90;5.55;;;;;;;;;;5019591;28;21190;-64
2024/01/26 04:19:11;;;;;;;7.03;4.70;;;;;;;;;;5020201;28;20846;-64
2024/01/26 04:21:36;;;;;;;10.63;5.40;;;;;;;;;;5023979;28;20399;-64
2024/01/26 04:24:02;;;;;;;8.20;5.00;;;;;;;;;;5022580;28;20461;-64
2024/01/26 04:26:27;;;;;;;7.57;4.93;;;;;;;;;;5021663;28;20403;-64
2024/01/26 04:28:53;;;;;;;7.10;4.65;;;;;;;;;;5034967;28;20768;-64
2024/01/26 04:31:18;;;;;;;7.13;4.70;;;;;;;;;;5033747;28;20489;-64
2024/01/26 04:33:43;;;;;;;6.50;4.60;;;;;;;;;;5036763;28;20486;-64
2024/01/26 04:36:09;;;;;;;7.10;4.47;;;;;;;;;;5042597;28;20436;-64
2024/01/26 04:38:36;;;;;;;7.00;4.87;;;;;;;;;;5042661;28;20472;-64
2024/01/26 04:41:02;;;;;;;6.03;4.32;;;;;;;;;;5042514;28;20408;-64
2024/01/26 04:43:28;;;;;;;6.75;4.55;;;;;;;;;;5042403;28;20389;-64
2024/01/26 04:45:53;;;;;;;6.27;4.40;;;;;;;;;;5025933;28;20403;-64
2024/01/26 04:48:18;;;;;;;6.85;4.18;;;;;;;;;;5038249;28;20456;-64
2024/01/26 04:50:44;;;;;;;7.30;4.53;;;;;;;;;;5036394;28;20420;-64
2024/01/26 04:53:09;;;;;;;6.47;4.00;;;;;;;;;;5033459;28;20428;-64
2024/01/26 04:55:34;;;;;;;7.23;4.37;;;;;;;;;;5034801;28;20409;-64
2024/01/26 04:58:01;;;;;;;7.40;4.50;;;;;;;;;;5041303;28;20410;-64
2024/01/26 05:00:26;;;;;;;8.07;4.68;;;;;;;;;;5023563;28;20895;-64
2024/01/26 05:02:52;;;;;;;7.40;4.63;;;;;;;;;;5023604;28;20406;-64
2024/01/26 05:05:17;;;;;;;7.30;4.20;;;;;;;;;;5022380;28;20482;-64
2024/01/26 05:07:43;;;;;;;7.07;4.17;;;;;;;;;;5041349;28;20405;-64
2024/01/26 05:10:08;;;;;;;6.80;4.20;;;;;;;;;;5041660;28;20410;-64
2024/01/26 05:12:33;;;;;;;6.70;4.20;;;;;;;;;;5037591;28;21064;-64
2024/01/26 05:14:59;;;;;;;7.43;4.10;;;;;;;;;;5017277;28;20829;-64
2024/01/26 05:17:24;;;;;;;6.83;4.30;;;;;;;;;;5014458;28;20441;-64
2024/01/26 05:19:49;;;;;;;6.73;4.47;;;;;;;;;;5017863;28;20881;-64
2024/01/26 05:22:15;;;;;;;6.07;4.10;;;;;;;;;;5022586;28;20399;-64
2024/01/26 05:24:40;;;;;;;8.03;4.80;;;;;;;;;;5022530;28;20419;-64
2024/01/26 05:27:05;;;;;;;8.15;4.47;;;;;;;;;;5021902;28;20532;-64
2024/01/26 05:29:31;;;;;;;7.80;4.30;;;;;;;;;;5022051;28;20763;-64
2024/01/26 05:31:56;;;;;;;10.30;4.90;;;;;;;;;;5022326;28;20421;-64
2024/01/26 05:34:21;;;;;;;7.50;4.90;;;;;;;;;;5020404;28;20406;-64
2024/01/26 05:36:46;;;;;;;7.73;4.87;;;;;;;;;;5014404;28;20447;-64
2024/01/26 05:39:12;;;;;;;7.70;5.23;;;;;;;;;;5013764;28;20434;-64
2024/01/26 05:41:37;;;;;;;8.18;5.20;;;;;;;;;;5014137;28;20438;-64
2024/01/26 05:44:02;;;;;;;8.63;5.50;;;;;;;;;;5021895;28;20990;-64
2024/01/26 05:46:28;;;;;;;8.27;5.57;;;;;;;;;;5022445;28;20435;-64
2024/01/26 05:48:54;;;;;;;9.83;6.13;;;;;;;;;;5023099;28;20779;-64
2024/01/26 05:51:20;;;;;;;8.57;6.00;;;;;;;;;;5023228;28;20399;-64
2024/01/26 05:53:45;;;;;;;9.97;5.70;;;;;;;;;;5022392;28;20977;-64
2024/01/26 05:56:11;;;;;;;8.07;5.88;;;;;;;;;;5021006;28;20403;-64
2024/01/26 05:58:36;;;;;;;9.00;5.60;;;;;;;;;;5015496;28;20418;-64
2024/01/26 06:01:01;;;;;;;8.03;5.97;;;;;;;;;;5028589;28;20477;-65
2024/01/26 06:03:27;;;;;;;8.83;6.40;;;;;;;;;;5012916;28;20410;-64
2024/01/26 06:05:52;;;;;;;9.90;6.90;;;;;;;;;;5020407;28;20485;-65
2024/01/26 06:08:17;;;;;;;10.13;6.80;;;;;;;;;;5040492;28;20811;-65
2024/01/26 06:10:43;;;;;;;8.87;6.80;;;;;;;;;;5040873;28;20784;-66
2024/01/26 06:13:08;;;;;;;10.23;7.03;;;;;;;;;;5039249;28;20405;-66
2024/01/26 06:15:35;;;;;;;9.13;6.90;;;;;;;;;;5021535;28;20890;-65
2024/01/26 06:18:00;;;;;;;9.98;6.82;;;;;;;;;;5040165;28;20405;-66
2024/01/26 06:20:30;;;;;;;8.77;7.10;;;;;;;;;;5037532;28;20420;-65
2024/01/26 06:22:56;;;;;;;9.93;7.00;;;;;;;;;;5032362;28;20556;-66
2024/01/26 06:25:21;;;;;;;10.00;7.60;;;;;;;;;;5032599;28;20495;-66
2024/01/26 06:27:46;;;;;;;8.83;7.40;;;;;;;;;;5036622;28;20397;-65
2024/01/26 06:30:12;;;;;;;9.93;7.50;;;;;;;;;;5039595;28;20400;-66
2024/01/26 06:32:37;;;;;;;11.50;7.90;;;;;;;;;;5041118;28;20754;-67
2024/01/26 06:35:03;;;;;;;10.47;7.27;;;;;;;;;;5040514;28;20519;-66
2024/01/26 06:37:28;;;;;;;10.07;7.30;;;;;;;;;;5040266;28;20435;-67
2024/01/26 06:39:55;;;;;;;9.30;7.30;;;;;;;;;;5023294;28;20407;-66
2024/01/26 06:42:25;;;;;;;10.43;7.80;;;;;;;;;;5038554;28;20423;-66
2024/01/26 06:44:52;;;;;;;9.90;7.60;;;;;;;;;;5024260;28;20415;-67
2024/01/26 06:47:17;;;;;;;8.93;7.47;;;;;;;;;;5024128;28;20819;-67
2024/01/26 06:49:43;;;;;;;9.83;7.27;;;;;;;;;;5015071;28;20498;-67
2024/01/26 06:52:08;;;;;;;10.70;7.30;;;;;;;;;;5019816;28;20470;-66
2024/01/26 06:54:33;;;;;;;9.53;7.17;;;;;;;;;;5021020;28;20450;-66
2024/01/26 06:56:58;;;;;;;9.10;7.10;;;;;;;;;;5020975;28;21667;-67
2024/01/26 06:59:24;;;;;;;9.00;7.07;;;;;;;;;;5020370;28;20423;-67
2024/01/26 07:01:49;;;;;;;9.73;6.90;;;;;;;;;;5020769;28;20391;-67
2024/01/26 07:04:14;;;;;;;11.03;7.67;;;;;;;;;;5020965;28;20481;-66
2024/01/26 07:06:40;;;;;;;9.20;7.30;;;;;;;;;;5013019;28;20906;-66
2024/01/26 07:09:06;;;;;;;8.83;7.17;;;;;;;;;;5031624;28;21340;-67
2024/01/26 07:11:31;;;;;;;9.40;7.00;;;;;;;;;;5032709;28;20800;-67
2024/01/26 07:13:56;;;;;;;9.70;7.03;;;;;;;;;;5031290;28;20474;-67
2024/01/26 07:16:22;;;;;;;9.20;6.63;;;;;;;;;;5020028;28;20382;-66
2024/01/26 07:18:47;;;;;;;8.10;6.33;;;;;;;;;;5050771;28;20761;-66
2024/01/26 07:21:18;;;;;;;9.77;6.40;;;;;;;;;;5049434;28;20539;-65
2024/01/26 07:23:43;;;;;;;8.50;6.30;;;;;;;;;;5050718;28;20417;-65
2024/01/26 07:26:08;;;;;;;8.87;6.10;;;;;;;;;;5049149;28;20393;-65
2024/01/26 07:28:34;;;;;;;8.57;5.90;;;;;;;;;;5050438;28;20443;-65
2024/01/26 07:30:59;;;;;;;7.43;5.88;;;;;;;;;;5050190;28;20401;-65
2024/01/26 07:33:24;;;;;;;8.60;6.33;;;;;;;;;;5049121;28;20397;-65
2024/01/26 07:35:50;;;;;;;8.43;5.70;;;;;;;;;;5050470;28;20413;-65
2024/01/26 07:38:15;;;;;;;7.43;5.17;;;;;;;;;;5050164;28;20402;-66
2024/01/26 07:40:40;;;;;;;7.10;5.53;;;;;;;;;;5049717;28;20409;-65
2024/01/26 07:43:06;;;;;;;6.57;4.77;;;;;;;;;;5050104;28;20436;-65
2024/01/26 07:45:32;;;;;;;7.27;5.03;;;;;;;;;;5050333;28;20393;-65
2024/01/26 07:47:57;;;;;;;10.30;7.22;;;;;;;;;;5035831;28;20391;-65
2024/01/26 07:50:22;;;;;;;12.27;9.67;;;;;;;;;;5030208;28;20396;-65
2024/01/26 07:52:48;;;;;;;5.93;4.60;;;;;;;;;;5030474;28;20411;-65
2024/01/26 07:55:13;;;;;;;6.43;4.90;;;;;;;;;;5031169;28;20437;-65
2024/01/26 07:57:38;;;;;;;6.30;4.43;;;;;;;;;;5034439;28;20399;-64
2024/01/26 08:00:05;;;;;;;7.57;4.80;;;;;;;;;;5030979;28;20926;-65
2024/01/26 08:02:30;;;;;;;6.45;4.65;;;;;;;;;;5035218;28;20440;-65
2024/01/26 08:04:56;;;;;;;6.70;5.23;;;;;;;;;;5053334;28;20429;-65
2024/01/26 08:07:21;;;;;;;8.40;5.32;;;;;;;;;;5052779;28;20865;-63
2024/01/26 08:09:46;;;;;;;6.57;5.37;;;;;;;;;;5052465;28;20460;-63
2024/01/26 08:12:11;;;;;;;8.13;5.40;;;;;;;;;;5052933;28;20467;-63
2024/01/26 08:14:37;;;;;;;8.70;5.80;;;;;;;;;;5053864;28;20449;-63
2024/01/26 08:17:03;;;;;;;8.10;6.00;;;;;;;;;;5052240;28;20478;-63
2024/01/26 08:19:28;;;;;;;8.35;6.53;;;;;;;;;;5053459;28;20405;-63
2024/01/26 08:21:53;;;;;;;8.80;6.17;;;;;;;;;;5052229;28;20404;-63
2024/01/26 08:24:18;;;;;;;7.53;6.27;;;;;;;;;;5051898;28;20414;-63
2024/01/26 08:26:44;;;;;;;7.33;6.13;;;;;;;;;;5053109;28;20480;-63
2024/01/26 08:29:09;;;;;;;7.90;6.28;;;;;;;;;;5053256;28;20402;-63
2024/01/26 08:31:35;;;;;;;9.47;7.93;;;;;;;;;;5051914;28;20479;-63
2024/01/26 08:34:00;;;;;;;9.33;7.13;;;;;;;;;;5053386;28;20472;-63
2024/01/26 08:36:25;;;;;;;8.30;6.70;;;;;;;;;;5052669;28;20410;-63
2024/01/26 08:38:53;;;;;;;9.18;6.97;;;;;;;;;;5052622;28;21279;-63
2024/01/26 08:41:18;;;;;;;8.15;6.65;;;;;;;;;;5052557;28;20413;-63
2024/01/26 08:43:43;;;;;;;7.83;6.40;;;;;;;;;;5052194;28;20401;-63
2024/01/26 08:46:09;;;;;;;10.23;7.50;;;;;;;;;;5052389;28;20393;-63
2024/01/26 08:48:34;;;;;;;8.95;7.05;;;;;;;;;;5053174;28;20923;-63
2024/01/26 08:51:00;;;;;;;9.67;6.77;;;;;;;;;;5053023;28;20924;-63
2024/01/26 08:53:26;;;;;;;9.50;7.50;;;;;;;;;;5053003;28;20493;-62
2024/01/26 08:55:51;;;;;;;9.70;6.93;;;;;;;;;;5053208;28;20409;-63
2024/01/26 08:58:17;;;;;;;9.40;7.17;;;;;;;;;;5051972;28;20591;-63
2024/01/26 09:00:42;;;;;;;8.50;6.80;;;;;;;;;;5053418;28;20413;-63
2024/01/26 09:03:08;;;;;;;8.77;7.00;;;;;;;;;;5052471;28;20401;-63
2024/01/26 09:05:33;;;;;;;9.32;7.22;;;;;;;;;;5051824;28;20409;-63
2024/01/26 09:07:58;;;;;;;9.37;7.33;;;;;;;;;;5053136;28;20408;-63
2024/01/26 09:10:24;;;;;;;9.40;6.97;;;;;;;;;;5052519;28;20389;-63
2024/01/26 09:12:49;;;;;;;10.88;7.40;;;;;;;;;;5052303;28;20408;-64
2024/01/26 09:15:15;;;;;;;11.37;7.63;;;;;;;;;;5052472;28;20970;-65
2024/01/26 09:17:40;;;;;;;10.83;7.40;;;;;;;;;;5053044;28;20745;-65
2024/01/26 09:20:06;;;;;;;11.00;7.63;;;;;;;;;;5051281;28;20401;-65
2024/01/26 09:22:32;;;;;;;11.63;7.85;;;;;;;;;;5048750;28;20479;-65
2024/01/26 09:24:57;;;;;;;13.90;9.13;;;;;;;;;;5049943;28;20471;-65
2024/01/26 09:27:23;;;;;;;11.50;7.57;;;;;;;;;;5051246;28;20390;-66
2024/01/26 09:29:48;;;;;;;9.02;5.82;;;;;;;;;;5052449;28;20780;-65
2024/01/26 09:32:13;;;;;;;7.13;4.20;;;;;;;;;;5052229;28;20485;-66
2024/01/26 09:34:39;;;;;;;8.53;4.97;;;;;;;;;;5051298;28;20429;-66
2024/01/26 09:37:04;;;;;;;10.40;5.63;;;;;;;;;;5052109;28;20397;-65
2024/01/26 09:39:29;;;;;;;6.70;3.83;;;;;;;;;;5051968;28;20401;-65
2024/01/26 09:41:55;;;;;;;7.00;3.10;;;;;;;;;;5051650;28;20452;-65
2024/01/26 09:44:21;;;;;;;5.87;2.30;;;;;;;;;;5051770;28;20477;-66
2024/01/26 09:46:47;;;;;;;5.97;1.90;;;;;;;;;;5051837;28;20558;-66
2024/01/26 09:49:12;;;;;;;5.20;1.50;;;;;;;;;;5051521;28;20505;-65
2024/01/26 09:51:38;;;;;;;4.40;1.37;;;;;;;;;;5052164;28;20885;-65
2024/01/26 09:54:04;;;;;;;5.37;2.00;;;;;;;;;;5050620;28;20402;-65
2024/01/26 09:56:31;;;;;;;8.10;1.88;;;;;;;;;;5052119;28;20466;-65
2024/01/26 09:58:56;;;;;;;4.57;1.30;;;;;;;;;;5034533;28;20393;-66
2024/01/26 10:01:22;;;;;;;3.67;0.80;;;;;;;;;;5050718;28;20477;-66
2024/01/26 10:03:47;;;;;;;3.65;0.98;;;;;;;;;;5051915;28;20408;-65
2024/01/26 10:06:13;;;;;;;2.67;0.77;;;;;;;;;;5051477;28;20398;-65
2024/01/26 10:08:38;;;;;;;3.65;0.77;;;;;;;;;;5050920;28;20974;-65
2024/01/26 10:11:04;;;;;;;3.63;0.80;;;;;;;;;;5051485;28;20476;-65
2024/01/26 10:13:29;;;;;;;2.38;0.75;;;;;;;;;;5051845;28;20462;-65
2024/01/26 10:16:04;;;;;;;5.27;1.13;;;;;;;;;;5050955;28;20429;-65
2024/01/26 10:18:37;;;;;;;4.83;0.87;;;;;;;;;;5050731;28;20474;-65
2024/01/26 10:21:03;;;;;;;6.35;0.95;;;;;;;;;;5051103;28;20761;-65
2024/01/26 10:23:28;;;;;;;6.83;0.80;;;;;;;;;;5050327;28;20389;-65
2024/01/26 10:25:53;;;;;;;5.43;1.30;;;;;;;;;;5051647;28;20413;-65
2024/01/26 10:28:19;;;;;;;6.60;1.10;;;;;;;;;;5050990;28;20480;-65
2024/01/26 10:30:44;;;;;;;4.97;1.40;;;;;;;;;;5051287;28;20401;-65
2024/01/26 10:33:09;;;;;;;6.97;1.47;;;;;;;;;;5051074;28;20393;-65
2024/01/26 10:35:35;;;;;;;6.20;1.13;;;;;;;;;;5033353;28;20455;-65
2024/01/26 10:38:00;;;;;;;6.43;1.37;;;;;;;;;;5050278;28;20400;-65
2024/01/26 10:40:25;;;;;;;6.38;1.20;;;;;;;;;;5016782;28;20390;-65
2024/01/26 10:42:51;;;;;;;5.27;1.17;;;;;;;;;;5051281;28;20409;-65
2024/01/26 10:45:16;;;;;;;9.13;1.50;;;;;;;;;;5032496;28;20907;-65
2024/01/26 10:47:41;;;;;;;7.30;1.50;;;;;;;;;;5051272;28;20405;-65
2024/01/26 10:50:07;;;;;;;7.73;1.70;;;;;;;;;;5049993;28;20493;-65
2024/01/26 10:52:34;;;;;;;9.77;1.70;;;;;;;;;;5032954;28;20424;-65
2024/01/26 10:55:00;;;;;;;10.45;1.80;;;;;;;;;;5051172;28;20424;-65
2024/01/26 10:57:25;;;;;;;7.80;1.67;;;;;;;;;;5032400;28;20406;-65
2024/01/26 10:59:50;;;;;;;6.88;1.50;;;;;;;;;;5051199;28;20499;-64
2024/01/26 11:02:17;;;;;;;8.33;1.70;;;;;;;;;;5032217;28;20440;-64
2024/01/26 11:04:43;;;;;;;9.68;1.77;;;;;;;;;;5032387;28;20428;-65
2024/01/26 11:07:09;;;;;;;7.63;1.50;;;;;;;;;;5049740;28;20754;-65
2024/01/26 11:09:38;;;;;;;9.40;1.50;;;;;;;;;;5050879;28;20382;-64
2024/01/26 11:12:03;;;;;;;7.13;1.42;;;;;;;;;;5031972;28;20405;-65
2024/01/26 11:14:31;;;;;;;10.63;1.73;;;;;;;;;;5050769;28;20390;-63
2024/01/26 11:17:07;;;;;;;7.63;1.80;;;;;;;;;;5050691;28;20409;-64
2024/01/26 11:19:32;;;;;;;7.53;1.75;;;;;;;;;;5049403;28;20977;-64
2024/01/26 11:21:57;;;;;;;7.20;1.80;;;;;;;;;;5050136;28;20465;-64
2024/01/26 11:24:24;;;;;;;9.60;2.13;;;;;;;;;;5049559;28;20404;-64
2024/01/26 11:26:56;;;;;;;9.32;1.90;;;;;;;;;;5031635;28;20761;-64
2024/01/26 11:29:22;;;;;;;9.85;2.10;;;;;;;;;;5052330;28;20374;-64
2024/01/26 11:31:47;;;;;;;7.70;1.50;;;;;;;;;;5054997;28;20405;-64
2024/01/26 11:34:17;;;;;;;9.70;1.93;;;;;;;;;;5053395;28;20401;-64
2024/01/26 11:36:42;;;;;;;7.63;1.80;;;;;;;;;;5054146;28;20409;-63
2024/01/26 11:39:09;;;;;;;11.27;1.90;;;;;;;;;;5054043;28;20427;-63
2024/01/26 11:41:35;;;;;;;9.57;1.80;;;;;;;;;;5036384;28;20417;-62
2024/01/26 11:44:00;;;;;;;8.73;1.50;;;;;;;;;;5052959;28;20409;-65
2024/01/26 11:46:26;;;;;;;8.30;1.50;;;;;;;;;;5035913;28;20404;-63
2024/01/26 11:48:51;;;;;;;9.70;1.73;;;;;;;;;;5036679;28;20795;-64
2024/01/26 11:51:17;;;;;;;7.97;1.70;;;;;;;;;;5053695;28;20583;-64
2024/01/26 11:53:42;;;;;;;6.60;1.43;;;;;;;;;;5053325;28;20509;-64
2024/01/26 11:56:07;;;;;;;10.17;1.67;;;;;;;;;;5053926;28;20439;-64
2024/01/26 11:58:32;;;;;;;11.40;2.17;;;;;;;;;;5054356;28;20409;-63
2024/01/26 12:00:59;;;;;;;8.90;1.75;;;;;;;;;;5035774;28;20385;-63
2024/01/26 12:03:25;;;;;;;8.47;1.70;;;;;;;;;;5053890;28;20396;-63
2024/01/26 12:05:50;;;;;;;9.80;1.67;;;;;;;;;;5036374;28;20394;-64
2024/01/26 12:08:15;;;;;;;9.43;1.80;;;;;;;;;;5034515;28;20398;-64
2024/01/26 12:10:42;;;;;;;9.43;1.73;;;;;;;;;;5036438;28;20405;-63
2024/01/26 12:13:08;;;;;;;11.48;2.25;;;;;;;;;;5053459;28;20389;-63
2024/01/26 12:15:38;;;;;;;11.00;2.10;;;;;;;;;;5053186;28;20405;-63
2024/01/26 12:18:07;;;;;;;11.30;2.20;;;;;;;;;;5053503;28;20389;-64
2024/01/26 12:20:34;;;;;;;10.45;2.00;;;;;;;;;;5054029;28;20935;-63
2024/01/26 12:23:00;;;;;;;11.82;2.22;;;;;;;;;;5052854;28;20397;-63
2024/01/26 12:25:27;;;;;;;10.77;2.00;;;;;;;;;;5052941;28;20412;-63
2024/01/26 12:27:53;;;;;;;11.20;2.30;;;;;;;;;;5053719;28;20405;-63
2024/01/26 12:30:18;;;;;;;11.20;2.13;;;;;;;;;;5052519;28;20393;-63
2024/01/26 12:32:44;;;;;;;11.27;2.30;;;;;;;;;;5053679;28;20425;-63
2024/01/26 12:35:09;;;;;;;13.20;2.13;;;;;;;;;;5052836;28;20441;-63
2024/01/26 12:37:34;;;;;;;9.73;2.20;;;;;;;;;;5052772;28;20406;-63
2024/01/26 12:40:00;;;;;;;12.53;2.50;;;;;;;;;;5052658;28;20881;-65
2024/01/26 12:42:25;;;;;;;12.60;2.30;;;;;;;;;;5052702;28;20397;-65
2024/01/26 12:44:50;;;;;;;10.57;1.87;;;;;;;;;;5052940;28;20424;-65
2024/01/26 12:47:16;;;;;;;10.70;2.10;;;;;;;;;;5052841;28;20920;-64
2024/01/26 12:49:41;;;;;;;11.57;2.10;;;;;;;;;;5052520;28;20907;-65
2024/01/26 12:52:06;;;;;;;11.35;2.20;;;;;;;;;;5052602;28;20409;-64
2024/01/26 12:54:31;;;;;;;9.03;1.93;;;;;;;;;;5050872;28;20393;-65
2024/01/26 12:56:57;;;;;;;14.40;2.57;;;;;;;;;;5052557;28;20772;-65
2024/01/26 12:59:22;;;;;;;11.83;2.00;;;;;;;;;;5052931;28;20423;-65
2024/01/26 13:01:47;;;;;;;13.40;2.40;;;;;;;;;;5053088;28;20435;-65
2024/01/26 13:04:13;;;;;;;12.95;2.20;;;;;;;;;;5068594;28;20488;-65
2024/01/26 13:06:38;;;;;;;12.50;2.33;;;;;;;;;;5053471;28;20896;-65
2024/01/26 13:09:06;;;;;;;15.53;2.50;;;;;;;;;;5051986;28;20398;-65
2024/01/26 13:11:32;;;;;;;12.48;2.30;;;;;;;;;;5052248;28;20912;-65
2024/01/26 13:13:57;;;;;;;15.57;2.40;;;;;;;;;;5053010;28;20592;-65
2024/01/26 13:16:22;;;;;;;14.40;2.73;;;;;;;;;;5063215;28;20466;-65
2024/01/26 13:18:47;;;;;;;12.30;2.33;;;;;;;;;;5050186;28;20495;-65
2024/01/26 13:21:13;;;;;;;13.80;2.37;;;;;;;;;;5034314;28;20417;-65
2024/01/26 13:23:38;;;;;;;12.20;2.27;;;;;;;;;;5065579;28;20767;-65
2024/01/26 13:26:04;;;;;;;12.90;2.33;;;;;;;;;;5063450;28;21260;-65
2024/01/26 13:28:29;;;;;;;11.00;2.07;;;;;;;;;;5052737;28;20469;-65
2024/01/26 13:30:54;;;;;;;14.77;2.47;;;;;;;;;;5052454;28;20409;-65
2024/01/26 13:33:21;;;;;;;9.80;2.20;;;;;;;;;;5051709;28;20892;-64
2024/01/26 13:35:46;;;;;;;10.48;2.33;;;;;;;;;;5052617;28;20393;-64
2024/01/26 13:38:12;;;;;;;11.20;2.20;;;;;;;;;;5051619;28;20784;-64
2024/01/26 13:40:37;;;;;;;13.80;2.33;;;;;;;;;;5051816;28;20401;-64
2024/01/26 13:43:03;;;;;;;11.02;2.00;;;;;;;;;;5052053;28;20953;-64
2024/01/26 13:45:28;;;;;;;10.87;2.00;;;;;;;;;;5051853;28;20407;-64
2024/01/26 13:47:54;;;;;;;9.40;1.80;;;;;;;;;;5051668;28;20398;-64
2024/01/26 13:50:19;;;;;;;8.90;1.73;;;;;;;;;;5051748;28;20397;-64
2024/01/26 13:52:44;;;;;;;9.57;1.93;;;;;;;;;;5051842;28;20409;-64
2024/01/26 13:55:09;;;;;;;9.43;1.87;;;;;;;;;;5050379;28;20492;-64
2024/01/26 13:57:35;;;;;;;8.80;1.80;;;;;;;;;;5051792;28;20776;-64
2024/01/26 14:00:00;;;;;;;9.50;1.83;;;;;;;;;;5051277;28;20772;-64
2024/01/26 14:02:26;;;;;;;11.10;2.00;;;;;;;;;;5051329;28;20486;-64
2024/01/26 14:04:51;;;;;;;10.67;1.93;;;;;;;;;;5052157;28;20389;-64
2024/01/26 14:07:16;;;;;;;10.03;1.90;;;;;;;;;;5050294;28;20795;-64
2024/01/26 14:09:41;;;;;;;10.30;1.83;;;;;;;;;;5051550;28;20885;-64
2024/01/26 14:12:07;;;;;;;7.40;1.60;;;;;;;;;;5051026;28;20504;-64
2024/01/26 14:14:33;;;;;;;11.73;1.90;;;;;;;;;;5050777;28;20421;-65
2024/01/26 14:16:59;;;;;;;9.77;2.00;;;;;;;;;;5033885;28;20413;-64
2024/01/26 14:19:24;;;;;;;9.00;1.80;;;;;;;;;;5051289;28;20378;-64
2024/01/26 14:21:50;;;;;;;9.13;1.90;;;;;;;;;;5050558;28;20398;-63
2024/01/26 14:24:15;;;;;;;11.77;2.10;;;;;;;;;;5050256;28;20424;-63